createdAt,value
2023-12-22T00:00:30.016Z,3.70
2023-12-22T00:03:18.358Z,2.90
2023-12-22T00:05:46.903Z,3.10
2023-12-22T00:08:15.106Z,3.40
2023-12-22T00:10:43.456Z,2.30
2023-12-22T00:13:11.882Z,3.00
2023-12-22T00:15:40.237Z,3.20
2023-12-22T00:18:08.507Z,2.80
2023-12-22T00:20:37.600Z,5.60
2023-12-22T00:23:05.786Z,2.50
2023-12-22T00:25:34.130Z,2.80
2023-12-22T00:28:02.346Z,2.50
2023-12-22T00:30:30.655Z,2.20
2023-12-22T00:32:59.033Z,1.70
2023-12-22T00:35:27.515Z,2.10
2023-12-22T00:37:55.883Z,3.70
2023-12-22T00:40:24.298Z,5.50
2023-12-22T00:42:52.658Z,2.50
2023-12-22T00:45:21.135Z,2.40
2023-12-22T00:47:49.611Z,3.00
2023-12-22T00:50:18.658Z,2.20
2023-12-22T00:52:47.044Z,2.80
2023-12-22T00:55:15.848Z,3.10
2023-12-22T00:57:44.406Z,2.70
2023-12-22T01:00:13.667Z,1.70
2023-12-22T01:02:42.040Z,1.70
2023-12-22T01:05:10.594Z,2.30
2023-12-22T01:07:39.237Z,1.80
2023-12-22T01:10:08.290Z,3.50
2023-12-22T01:12:36.591Z,1.50
2023-12-22T01:15:05.877Z,2.20
2023-12-22T01:17:34.189Z,1.70
2023-12-22T01:20:02.581Z,2.30
2023-12-22T01:22:32.469Z,1.80
2023-12-22T01:25:01.183Z,1.60
2023-12-22T01:27:29.688Z,1.20
2023-12-22T01:29:58.139Z,2.30
2023-12-22T01:32:26.378Z,1.70
2023-12-22T01:34:54.759Z,6.90
2023-12-22T01:37:24.778Z,1.60
2023-12-22T01:39:52.945Z,2.10
2023-12-22T01:42:21.374Z,1.60
2023-12-22T01:44:49.644Z,2.90
2023-12-22T01:47:18.168Z,3.50
2023-12-22T01:49:46.771Z,2.80
2023-12-22T01:52:16.393Z,2.30
2023-12-22T01:54:44.734Z,3.40
2023-12-22T01:57:18.903Z,4.40
2023-12-22T01:59:49.893Z,2.90
2023-12-22T02:02:18.397Z,4.40
2023-12-22T02:04:48.231Z,2.60
2023-12-22T02:07:17.015Z,2.00
2023-12-22T02:09:45.345Z,2.40
2023-12-22T02:12:13.639Z,2.30
2023-12-22T02:14:42.211Z,4.70
2023-12-22T02:17:34.189Z,3.90
2023-12-22T02:20:02.874Z,2.30
2023-12-22T02:22:31.692Z,2.70
2023-12-22T02:25:00.153Z,2.40
2023-12-22T02:27:34.607Z,2.60
2023-12-22T02:30:10.835Z,2.30
2023-12-22T02:32:43.333Z,3.10
2023-12-22T02:35:16.555Z,3.20
2023-12-22T02:37:48.464Z,2.30
2023-12-22T02:40:18.755Z,2.10
2023-12-22T02:42:48.127Z,2.90
2023-12-22T02:45:18.585Z,3.10
2023-12-22T02:47:48.172Z,3.30
2023-12-22T02:50:18.140Z,4.20
2023-12-22T02:52:46.492Z,3.50
2023-12-22T02:55:15.301Z,3.40
2023-12-22T02:57:43.889Z,3.20
2023-12-22T03:00:12.880Z,3.60
2023-12-22T03:02:41.305Z,3.50
2023-12-22T03:05:10.124Z,3.60
2023-12-22T03:07:38.407Z,3.50
2023-12-22T03:10:07.413Z,3.10
2023-12-22T03:12:35.741Z,4.00
2023-12-22T03:15:04.824Z,3.70
2023-12-22T03:17:33.172Z,6.70
2023-12-22T03:20:01.531Z,3.40
2023-12-22T03:22:29.914Z,4.50
2023-12-22T03:24:58.236Z,5.10
2023-12-22T03:27:26.408Z,3.90
2023-12-22T03:29:54.791Z,4.20
2023-12-22T03:32:23.023Z,4.30
2023-12-22T03:34:51.427Z,5.00
2023-12-22T03:37:19.843Z,3.80
2023-12-22T03:39:48.099Z,4.20
2023-12-22T03:42:16.354Z,4.80
2023-12-22T03:44:44.696Z,6.10
2023-12-22T03:47:13.097Z,4.30
2023-12-22T03:49:41.466Z,3.90
2023-12-22T03:52:09.810Z,3.10
2023-12-22T03:54:38.038Z,3.70
2023-12-22T03:57:06.336Z,6.30
2023-12-22T03:59:34.614Z,4.50
2023-12-22T04:02:03.595Z,3.90
2023-12-22T04:04:32.321Z,3.20
2023-12-22T04:07:00.890Z,3.70
2023-12-22T04:09:29.148Z,4.10
2023-12-22T04:11:57.340Z,4.70
2023-12-22T04:14:25.486Z,5.20
2023-12-22T04:16:54.547Z,4.90
2023-12-22T04:19:23.254Z,5.20
2023-12-22T04:21:51.670Z,4.80
2023-12-22T04:24:19.951Z,7.40
2023-12-22T04:26:48.420Z,6.80
2023-12-22T04:29:17.250Z,6.10
2023-12-22T04:31:46.244Z,9.20
2023-12-22T04:34:17.350Z,5.60
2023-12-22T04:36:45.774Z,4.70
2023-12-22T04:39:14.093Z,5.60
2023-12-22T04:41:42.733Z,5.30
2023-12-22T04:44:11.199Z,5.10
2023-12-22T04:46:39.498Z,5.50
2023-12-22T04:49:07.984Z,5.40
2023-12-22T04:51:36.343Z,6.80
2023-12-22T04:54:04.557Z,6.10
2023-12-22T04:56:33.642Z,14.10
2023-12-22T04:59:01.922Z,7.00
2023-12-22T05:01:30.333Z,6.80
2023-12-22T05:03:58.676Z,5.90
2023-12-22T05:06:27.041Z,6.00
2023-12-22T05:08:55.340Z,6.10
2023-12-22T05:11:24.139Z,9.40
2023-12-22T05:13:52.428Z,8.20
2023-12-22T05:16:21.630Z,7.90
2023-12-22T05:18:49.925Z,5.90
2023-12-22T05:21:18.169Z,6.70
2023-12-22T05:23:46.334Z,6.00
2023-12-22T05:26:21.745Z,6.50
2023-12-22T05:28:53.440Z,6.20
2023-12-22T05:31:21.737Z,8.30
2023-12-22T05:33:49.997Z,7.30
2023-12-22T05:36:18.684Z,7.50
2023-12-22T05:38:48.519Z,6.00
2023-12-22T05:41:16.739Z,7.80
2023-12-22T05:43:45.020Z,8.70
2023-12-22T05:46:13.322Z,8.30
2023-12-22T05:48:41.601Z,8.30
2023-12-22T05:51:14.767Z,7.80
2023-12-22T05:53:43.300Z,9.40
2023-12-22T05:56:23.758Z,7.70
2023-12-22T05:58:52.168Z,6.20
2023-12-22T06:01:20.506Z,6.70
2023-12-22T06:03:49.714Z,7.20
2023-12-22T06:06:19.928Z,6.20
2023-12-22T06:08:48.469Z,7.70
2023-12-22T06:11:19.279Z,7.90
2023-12-22T06:13:47.532Z,8.80
2023-12-22T06:16:16.281Z,8.20
2023-12-22T06:18:45.878Z,8.60
2023-12-22T06:21:14.164Z,6.90
2023-12-22T06:23:42.539Z,6.00
2023-12-22T06:26:12.859Z,6.10
2023-12-22T06:28:42.301Z,10.70
2023-12-22T06:31:22.185Z,9.50
2023-12-22T06:33:53.068Z,7.60
2023-12-22T06:36:26.286Z,12.00
2023-12-22T06:41:28.183Z,9.50
2023-12-22T06:43:58.884Z,7.80
2023-12-22T06:46:28.104Z,8.70
2023-12-22T06:48:57.762Z,6.10
2023-12-22T06:51:27.691Z,6.80
2023-12-22T06:53:57.236Z,8.00
2023-12-22T06:56:27.753Z,5.40
2023-12-22T06:58:58.851Z,4.30
2023-12-22T07:01:29.958Z,5.70
2023-12-22T07:03:58.967Z,6.20
2023-12-22T07:06:29.489Z,6.10
2023-12-22T07:09:20.664Z,3.90
2023-12-22T07:11:54.156Z,4.90
2023-12-22T07:14:23.801Z,5.60
2023-12-22T07:16:52.334Z,9.60
2023-12-22T07:19:20.746Z,5.50
2023-12-22T07:21:49.080Z,7.20
2023-12-22T07:24:17.283Z,5.20
2023-12-22T07:26:48.089Z,6.80
2023-12-22T07:29:16.406Z,5.00
2023-12-22T07:31:46.496Z,4.90
2023-12-22T07:34:16.488Z,5.30
2023-12-22T07:36:51.212Z,8.10
2023-12-22T07:39:27.490Z,5.40
2023-12-22T07:41:56.676Z,4.60
2023-12-22T07:44:25.448Z,4.10
2023-12-22T07:47:02.727Z,5.40
2023-12-22T07:49:32.959Z,5.20
2023-12-22T07:52:04.055Z,5.70
2023-12-22T07:54:32.676Z,4.90
2023-12-22T07:57:02.132Z,5.50
2023-12-22T07:59:32.449Z,4.50
2023-12-22T08:02:01.982Z,4.50
2023-12-22T08:04:30.596Z,4.10
2023-12-22T08:06:59.290Z,4.20
2023-12-22T08:09:27.699Z,11.50
2023-12-22T08:11:58.333Z,4.30
2023-12-22T08:14:26.980Z,4.50
2023-12-22T08:16:55.288Z,4.40
2023-12-22T08:19:25.239Z,4.40
2023-12-22T08:21:56.314Z,7.20
2023-12-22T08:24:25.012Z,4.20
2023-12-22T08:26:53.613Z,7.10
2023-12-22T08:29:21.972Z,4.60
2023-12-22T08:31:50.318Z,4.30
2023-12-22T08:34:18.557Z,4.00
2023-12-22T08:36:47.419Z,4.30
2023-12-22T08:39:16.095Z,4.60
2023-12-22T08:41:45.115Z,4.90
2023-12-22T08:44:16.178Z,4.20
2023-12-22T08:46:44.891Z,5.10
2023-12-22T08:49:13.379Z,5.30
2023-12-22T08:51:42.742Z,4.90
2023-12-22T08:54:11.084Z,9.50
2023-12-22T08:56:39.463Z,7.30
2023-12-22T08:59:10.314Z,5.40
2023-12-22T09:01:39.081Z,4.70
2023-12-22T09:04:09.641Z,5.90
2023-12-22T09:06:38.514Z,4.20
2023-12-22T09:09:07.760Z,7.10
2023-12-22T09:11:36.489Z,4.80
2023-12-22T09:14:10.891Z,6.70
2023-12-22T09:16:39.731Z,5.80
2023-12-22T09:19:08.094Z,5.00
2023-12-22T09:21:36.727Z,5.30
2023-12-22T09:24:06.632Z,6.10
2023-12-22T09:26:34.943Z,7.50
2023-12-22T09:29:03.583Z,5.60
2023-12-22T09:31:31.944Z,5.20
2023-12-22T09:34:00.386Z,5.90
2023-12-22T09:36:28.908Z,9.30
2023-12-22T09:38:57.105Z,10.10
2023-12-22T09:41:25.307Z,9.30
2023-12-22T09:43:57.431Z,8.20
2023-12-22T09:46:28.042Z,14.40
2023-12-22T09:48:56.276Z,8.60
2023-12-22T09:51:24.506Z,10.60
2023-12-22T09:53:54.158Z,8.80
2023-12-22T09:56:25.210Z,9.40
2023-12-22T09:58:56.292Z,8.40
2023-12-22T10:01:26.263Z,7.90
2023-12-22T10:03:54.831Z,17.20
2023-12-22T10:06:23.290Z,21.40
2023-12-22T10:08:52.908Z,6.60
2023-12-22T10:11:23.168Z,7.00
2023-12-22T10:13:54.170Z,7.20
2023-12-22T10:16:23.004Z,12.60
2023-12-22T10:18:52.665Z,5.70
2023-12-22T10:21:21.058Z,5.80
2023-12-22T10:23:49.727Z,6.00
2023-12-22T10:26:18.523Z,7.50
2023-12-22T10:28:50.101Z,8.30
2023-12-22T10:31:19.009Z,9.00
2023-12-22T10:33:47.357Z,6.10
2023-12-22T10:36:16.308Z,6.00
2023-12-22T10:38:46.213Z,7.30
2023-12-22T10:41:14.686Z,7.20
2023-12-22T10:43:43.227Z,9.20
2023-12-22T10:46:14.373Z,8.50
2023-12-22T10:48:42.952Z,9.60
2023-12-22T10:51:12.332Z,9.90
2023-12-22T10:53:44.284Z,9.20
2023-12-22T10:56:13.223Z,29.50
2023-12-22T10:58:43.993Z,28.40
2023-12-22T11:01:15.476Z,18.30
2023-12-22T11:03:46.203Z,36.60
2023-12-22T11:06:17.538Z,13.10
2023-12-22T11:08:48.277Z,25.10
2023-12-22T11:11:31.024Z,15.50
2023-12-22T11:14:00.878Z,9.90
2023-12-22T11:16:30.772Z,43.30
2023-12-22T11:19:00.442Z,49.40
2023-12-22T11:21:32.293Z,15.70
2023-12-22T11:24:01.513Z,4.90
2023-12-22T11:26:30.763Z,2.70
2023-12-22T11:29:00.657Z,6.50
2023-12-22T11:31:32.818Z,2.70
2023-12-22T11:34:09.731Z,2.70
2023-12-22T11:36:42.169Z,2.70
2023-12-22T11:39:10.472Z,2.80
2023-12-22T11:41:40.756Z,5.20
2023-12-22T11:44:09.977Z,4.70
2023-12-22T11:46:38.719Z,6.30
2023-12-22T11:49:08.232Z,4.80
2023-12-22T11:51:37.066Z,15.40
2023-12-22T11:54:05.516Z,7.60
2023-12-22T11:56:35.960Z,6.60
2023-12-22T11:59:04.273Z,10.10
2023-12-22T12:01:39.583Z,6.70
2023-12-22T12:04:08.098Z,4.70
2023-12-22T12:06:38.540Z,3.70
2023-12-22T12:09:11.233Z,3.40
2023-12-22T12:11:59.647Z,4.90
2023-12-22T12:14:32.856Z,17.30
2023-12-22T12:17:12.056Z,2.80
2023-12-22T12:19:43.753Z,5.20
2023-12-22T12:22:15.129Z,2.10
2023-12-22T12:24:44.249Z,2.30
2023-12-22T12:27:12.834Z,5.30
2023-12-22T12:29:41.250Z,5.00
2023-12-22T12:32:09.977Z,3.10
2023-12-22T12:34:39.269Z,3.40
2023-12-22T12:37:08.148Z,4.70
2023-12-22T12:39:38.497Z,2.00
2023-12-22T12:42:09.704Z,4.30
2023-12-22T12:44:39.012Z,3.60
2023-12-22T12:47:16.865Z,4.90
2023-12-22T12:49:45.657Z,2.30
2023-12-22T12:52:17.230Z,4.30
2023-12-22T12:54:46.440Z,3.10
2023-12-22T12:57:16.966Z,2.50
2023-12-22T12:59:52.367Z,5.80
2023-12-22T13:02:25.503Z,1.70
2023-12-22T13:04:53.954Z,4.40
2023-12-22T13:07:27.156Z,4.00
2023-12-22T13:09:57.561Z,5.90
2023-12-22T13:12:27.535Z,1.40
2023-12-22T13:14:55.850Z,5.10
2023-12-22T13:17:24.528Z,1.70
2023-12-22T13:19:53.440Z,1.50
2023-12-22T13:22:21.850Z,2.20
2023-12-22T13:24:58.152Z,2.80
2023-12-22T13:27:26.509Z,2.70
2023-12-22T13:29:55.517Z,3.20
2023-12-22T13:32:29.240Z,2.20
2023-12-22T13:34:58.638Z,2.00
2023-12-22T13:37:32.214Z,2.10
2023-12-22T13:40:01.431Z,4.60
2023-12-22T13:42:30.071Z,3.20
2023-12-22T13:44:58.452Z,3.70
2023-12-22T13:47:28.157Z,5.50
2023-12-22T13:49:59.081Z,2.20
2023-12-22T13:52:38.155Z,1.40
2023-12-22T13:55:13.553Z,2.20
2023-12-22T13:57:41.926Z,1.80
2023-12-22T14:00:25.409Z,2.50
2023-12-22T14:02:54.586Z,6.00
2023-12-22T14:05:23.186Z,8.10
2023-12-22T14:07:52.528Z,4.30
2023-12-22T14:10:21.386Z,4.70
2023-12-22T14:12:49.594Z,2.80
2023-12-22T14:15:18.738Z,1.90
2023-12-22T14:17:48.159Z,1.90
2023-12-22T14:20:16.930Z,2.00
2023-12-22T14:22:45.564Z,3.00
2023-12-22T14:25:13.998Z,16.40
2023-12-22T14:27:42.597Z,20.60
2023-12-22T14:30:11.757Z,6.80
2023-12-22T14:32:40.954Z,10.30
2023-12-22T14:35:09.261Z,11.50
2023-12-22T14:37:38.235Z,9.90
2023-12-22T14:40:07.205Z,10.90
2023-12-22T14:42:35.444Z,20.10
2023-12-22T14:45:04.253Z,20.80
2023-12-22T14:47:32.771Z,22.20
2023-12-22T14:50:05.170Z,18.80
2023-12-22T14:52:34.125Z,24.90
2023-12-22T14:55:02.870Z,44.50
2023-12-22T14:57:31.466Z,48.00
2023-12-22T15:00:00.623Z,73.90
2023-12-22T15:02:29.698Z,40.90
2023-12-22T15:05:01.285Z,43.40
2023-12-22T15:07:30.418Z,35.20
2023-12-22T15:10:00.484Z,27.30
2023-12-22T15:12:33.835Z,14.70
2023-12-22T15:15:03.054Z,12.50
2023-12-22T15:17:34.741Z,12.50
2023-12-22T15:20:12.312Z,31.70
2023-12-22T15:22:41.766Z,26.40
2023-12-22T15:25:10.236Z,32.50
2023-12-22T15:27:40.159Z,43.60
2023-12-22T15:30:08.813Z,15.60
2023-12-22T15:32:37.109Z,16.30
2023-12-22T15:35:05.819Z,12.90
2023-12-22T15:37:36.363Z,14.80
2023-12-22T15:40:05.423Z,19.40
2023-12-22T15:42:33.744Z,17.20
2023-12-22T15:45:01.998Z,50.00
2023-12-22T15:47:30.363Z,53.30
2023-12-22T15:49:58.746Z,31.40
2023-12-22T15:52:27.090Z,26.60
2023-12-22T15:54:55.335Z,22.40
2023-12-22T15:57:23.548Z,24.70
2023-12-22T15:59:52.476Z,27.70
2023-12-22T16:02:20.873Z,25.00
2023-12-22T16:04:49.157Z,46.20
2023-12-22T16:07:17.419Z,55.80
2023-12-22T16:09:45.624Z,39.30
2023-12-22T16:12:13.833Z,64.60
2023-12-22T16:14:42.533Z,60.90
2023-12-22T16:17:10.877Z,43.30
2023-12-22T16:19:40.775Z,44.70
2023-12-22T16:22:08.997Z,60.90
2023-12-22T16:24:40.548Z,53.00
2023-12-22T16:27:08.871Z,61.20
2023-12-22T16:29:41.013Z,72.50
2023-12-22T16:32:12.287Z,62.20
2023-12-22T16:34:48.213Z,75.30
2023-12-22T16:37:18.029Z,66.60
2023-12-22T16:39:54.346Z,57.40
2023-12-22T16:42:23.001Z,69.60
2023-12-22T16:44:52.103Z,63.70
2023-12-22T16:47:20.751Z,47.20
2023-12-22T16:49:49.493Z,75.00
2023-12-22T16:52:18.253Z,87.80
2023-12-22T16:54:46.682Z,82.30
2023-12-22T16:57:16.332Z,112.10
2023-12-22T16:59:44.527Z,96.30
2023-12-22T17:02:27.466Z,60.10
2023-12-22T17:05:01.908Z,57.60
2023-12-22T17:07:34.075Z,128.80
2023-12-22T17:10:05.486Z,68.00
2023-12-22T17:12:34.524Z,95.70
2023-12-22T17:15:05.709Z,170.50
2023-12-22T17:17:34.818Z,155.70
2023-12-22T17:20:05.213Z,124.60
2023-12-22T17:22:33.720Z,85.70
2023-12-22T17:25:02.392Z,81.70
2023-12-22T17:27:30.805Z,84.70
2023-12-22T17:29:59.104Z,86.80
2023-12-22T17:32:27.332Z,97.30
2023-12-22T17:34:55.616Z,61.10
2023-12-22T17:37:24.077Z,81.10
2023-12-22T17:39:52.264Z,84.10
2023-12-22T17:42:20.454Z,89.10
2023-12-22T17:44:48.760Z,70.80
2023-12-22T17:47:16.977Z,77.50
2023-12-22T17:49:45.225Z,57.00
2023-12-22T17:52:13.501Z,54.30
2023-12-22T17:54:41.702Z,80.80
2023-12-22T17:57:13.829Z,48.50
2023-12-22T17:59:42.575Z,50.40
2023-12-22T18:02:17.143Z,49.30
2023-12-22T18:04:45.489Z,95.60
2023-12-22T18:07:13.864Z,68.50
2023-12-22T18:09:42.140Z,58.10
2023-12-22T18:12:10.516Z,61.00
2023-12-22T18:14:38.896Z,51.30
2023-12-22T18:17:07.226Z,76.00
2023-12-22T18:19:36.356Z,40.40
2023-12-22T18:22:04.662Z,51.30
2023-12-22T18:24:32.894Z,56.60
2023-12-22T18:27:01.216Z,56.00
2023-12-22T18:29:29.398Z,67.50
2023-12-22T18:31:57.863Z,54.20
2023-12-22T18:34:26.340Z,76.00
2023-12-22T18:36:54.913Z,49.40
2023-12-22T18:39:23.603Z,24.00
2023-12-22T18:41:52.032Z,77.40
2023-12-22T18:47:06.777Z,65.80
2023-12-22T18:49:35.301Z,58.60
2023-12-22T18:52:04.182Z,354.10
2023-12-22T18:54:32.491Z,379.50
2023-12-22T18:57:00.708Z,166.90
2023-12-22T18:59:29.215Z,64.50
2023-12-22T19:02:15.112Z,66.40
2023-12-22T19:04:47.104Z,177.60
2023-12-22T19:07:15.620Z,145.80
2023-12-22T19:09:44.710Z,81.40
2023-12-22T19:12:13.077Z,58.00
2023-12-22T19:14:41.493Z,52.00
2023-12-22T19:17:09.834Z,53.90
2023-12-22T19:19:38.172Z,44.70
2023-12-22T19:22:06.491Z,57.30
2023-12-22T19:24:35.004Z,90.00
2023-12-22T19:27:03.954Z,81.50
2023-12-22T19:29:32.345Z,86.80
2023-12-22T19:32:00.937Z,88.80
2023-12-22T19:34:31.231Z,71.80
2023-12-22T19:36:59.648Z,72.30
2023-12-22T19:39:28.001Z,108.30
2023-12-22T19:41:56.192Z,55.00
2023-12-22T19:44:24.548Z,94.60
2023-12-22T19:46:52.894Z,61.70
2023-12-22T19:49:24.212Z,71.30
2023-12-22T19:51:52.650Z,68.60
2023-12-22T19:54:20.863Z,77.20
2023-12-22T19:56:49.405Z,47.40
2023-12-22T19:59:17.706Z,56.30
2023-12-22T20:01:46.833Z,130.50
2023-12-22T20:04:15.884Z,82.20
2023-12-22T20:06:45.913Z,56.80
2023-12-22T20:09:14.340Z,54.80
2023-12-22T20:11:43.243Z,66.50
2023-12-22T20:14:12.280Z,59.40
2023-12-22T20:16:40.766Z,52.00
2023-12-22T20:19:09.708Z,56.70
2023-12-22T20:21:38.227Z,52.30
2023-12-22T20:24:07.248Z,54.70
2023-12-22T20:26:36.203Z,54.50
2023-12-22T20:29:04.562Z,48.30
2023-12-22T20:31:34.813Z,45.00
2023-12-22T20:34:03.173Z,52.30
2023-12-22T20:36:31.871Z,67.00
2023-12-22T20:39:00.541Z,54.10
2023-12-22T20:41:29.281Z,119.90
2023-12-22T20:43:57.745Z,360.80
2023-12-22T20:46:26.117Z,170.90
2023-12-22T20:48:54.642Z,137.50
2023-12-22T20:51:23.153Z,215.90
2023-12-22T20:53:51.531Z,296.70
2023-12-22T20:56:24.740Z,202.80
2023-12-22T21:01:22.474Z,124.50
2023-12-22T21:03:50.805Z,76.50
2023-12-22T21:06:19.779Z,242.20
2023-12-22T21:08:48.953Z,174.50
2023-12-22T21:11:26.595Z,154.60
2023-12-22T21:13:55.732Z,117.10
2023-12-22T21:16:24.222Z,115.00
2023-12-22T21:18:52.592Z,92.90
2023-12-22T21:21:21.095Z,92.80
2023-12-22T21:23:49.388Z,100.30
2023-12-22T21:26:24.956Z,81.90
2023-12-22T21:28:55.682Z,76.90
2023-12-22T21:31:26.332Z,101.20
2023-12-22T21:33:55.000Z,58.80
2023-12-22T21:36:24.586Z,86.10
2023-12-22T21:38:54.070Z,79.50
2023-12-22T21:41:23.850Z,56.70
2023-12-22T21:43:52.433Z,35.00
2023-12-22T21:46:20.976Z,67.30
2023-12-22T21:51:36.041Z,96.60
2023-12-22T21:54:04.423Z,47.70
2023-12-22T21:56:32.825Z,43.60
2023-12-22T21:59:01.643Z,31.80
2023-12-22T22:01:30.302Z,36.50
2023-12-22T22:03:58.599Z,27.30
2023-12-22T22:06:28.114Z,38.80
2023-12-22T22:08:56.286Z,35.20
2023-12-22T22:11:24.454Z,10.20
2023-12-22T22:13:52.808Z,5.20
2023-12-22T22:16:21.080Z,3.40
2023-12-22T22:18:49.707Z,3.70
2023-12-22T22:21:17.967Z,3.80
2023-12-22T22:23:46.742Z,3.30
2023-12-22T22:26:15.439Z,3.80
2023-12-22T22:28:44.880Z,4.00
2023-12-22T22:31:13.083Z,4.20
2023-12-22T22:33:47.217Z,2.50
2023-12-22T22:36:16.963Z,2.40
2023-12-22T22:38:45.761Z,2.70
2023-12-22T22:41:14.103Z,1.50
2023-12-22T22:43:42.520Z,1.70
2023-12-22T22:46:15.024Z,5.10
2023-12-22T22:48:43.809Z,2.80
2023-12-22T22:51:23.586Z,2.80
2023-12-22T22:53:53.085Z,5.20
2023-12-22T22:56:22.070Z,3.40
2023-12-22T22:58:50.321Z,3.70
2023-12-22T23:01:18.621Z,2.30
2023-12-22T23:03:46.833Z,4.40
2023-12-22T23:06:15.181Z,2.70
2023-12-22T23:08:43.695Z,3.70
2023-12-22T23:11:12.476Z,3.90
2023-12-22T23:13:40.747Z,2.90
2023-12-22T23:16:09.067Z,8.00
2023-12-22T23:18:37.421Z,2.70
2023-12-22T23:21:08.594Z,1.90
2023-12-22T23:23:36.826Z,3.20
2023-12-22T23:26:05.430Z,4.00
2023-12-22T23:28:33.838Z,2.90
2023-12-22T23:31:04.157Z,1.70
2023-12-22T23:33:32.658Z,4.10
2023-12-22T23:36:09.611Z,2.00
2023-12-22T23:38:42.604Z,2.10
2023-12-22T23:41:11.077Z,4.40
2023-12-22T23:43:40.719Z,2.30
2023-12-22T23:46:09.035Z,4.20
2023-12-22T23:48:38.365Z,2.20
2023-12-22T23:51:07.560Z,6.20
2023-12-22T23:53:35.958Z,5.40
2023-12-22T23:56:04.486Z,2.10
2023-12-22T23:58:32.820Z,2.20
